sensor_id;sensor_type;location;lat;lon;timestamp;P1;durP1;ratioP1;P2;durP2;ratioP2
24521;SDS011;12680;57.804;12.190;2022-11-21T00:01:15;0.10;;;0.10;;
24521;SDS011;12680;57.804;12.190;2022-11-21T00:03:50;0.28;;;0.20;;
24521;SDS011;12680;57.804;12.190;2022-11-21T00:06:18;1.48;;;0.32;;
24521;SDS011;12680;57.804;12.190;2022-11-21T00:08:46;0.10;;;0.10;;
24521;SDS011;12680;57.804;12.190;2022-11-21T00:11:13;0.13;;;0.13;;
24521;SDS011;12680;57.804;12.190;2022-11-21T00:13:41;0.30;;;0.30;;
24521;SDS011;12680;57.804;12.190;2022-11-21T00:16:10;0.13;;;0.13;;
24521;SDS011;12680;57.804;12.190;2022-11-21T00:18:39;0.82;;;0.30;;
24521;SDS011;12680;57.804;12.190;2022-11-21T00:21:10;0.20;;;0.20;;
24521;SDS011;12680;57.804;12.190;2022-11-21T00:23:39;0.10;;;0.10;;
24521;SDS011;12680;57.804;12.190;2022-11-21T00:26:07;0.57;;;0.30;;
24521;SDS011;12680;57.804;12.190;2022-11-21T00:28:35;0.20;;;0.20;;
24521;SDS011;12680;57.804;12.190;2022-11-21T00:31:03;0.20;;;0.20;;
24521;SDS011;12680;57.804;12.190;2022-11-21T00:33:31;0.20;;;0.20;;
24521;SDS011;12680;57.804;12.190;2022-11-21T00:36:09;0.20;;;0.20;;
24521;SDS011;12680;57.804;12.190;2022-11-21T00:38:36;0.65;;;0.45;;
24521;SDS011;12680;57.804;12.190;2022-11-21T00:41:04;0.20;;;0.20;;
24521;SDS011;12680;57.804;12.190;2022-11-21T00:43:31;0.28;;;0.28;;
24521;SDS011;12680;57.804;12.190;2022-11-21T00:45:59;0.20;;;0.20;;
24521;SDS011;12680;57.804;12.190;2022-11-21T00:48:29;0.45;;;0.30;;
24521;SDS011;12680;57.804;12.190;2022-11-21T00:50:57;0.25;;;0.25;;
24521;SDS011;12680;57.804;12.190;2022-11-21T00:53:28;0.30;;;0.30;;
24521;SDS011;12680;57.804;12.190;2022-11-21T00:55:55;0.32;;;0.30;;
24521;SDS011;12680;57.804;12.190;2022-11-21T00:58:23;0.40;;;0.38;;
24521;SDS011;12680;57.804;12.190;2022-11-21T01:00:50;0.30;;;0.30;;
24521;SDS011;12680;57.804;12.190;2022-11-21T01:03:17;0.30;;;0.30;;
24521;SDS011;12680;57.804;12.190;2022-11-21T01:05:45;0.17;;;0.17;;
24521;SDS011;12680;57.804;12.190;2022-11-21T01:08:12;0.20;;;0.20;;
24521;SDS011;12680;57.804;12.190;2022-11-21T01:10:39;0.22;;;0.20;;
24521;SDS011;12680;57.804;12.190;2022-11-21T01:13:06;0.20;;;0.20;;
24521;SDS011;12680;57.804;12.190;2022-11-21T01:15:33;0.20;;;0.20;;
24521;SDS011;12680;57.804;12.190;2022-11-21T01:18:00;0.17;;;0.17;;
24521;SDS011;12680;57.804;12.190;2022-11-21T01:20:27;0.10;;;0.10;;
24521;SDS011;12680;57.804;12.190;2022-11-21T01:22:54;0.50;;;0.25;;
24521;SDS011;12680;57.804;12.190;2022-11-21T01:25:21;0.20;;;0.20;;
24521;SDS011;12680;57.804;12.190;2022-11-21T01:27:49;0.65;;;0.30;;
24521;SDS011;12680;57.804;12.190;2022-11-21T01:30:16;0.50;;;0.32;;
24521;SDS011;12680;57.804;12.190;2022-11-21T01:32:46;0.20;;;0.20;;
24521;SDS011;12680;57.804;12.190;2022-11-21T01:35:14;0.20;;;0.20;;
24521;SDS011;12680;57.804;12.190;2022-11-21T01:37:42;0.32;;;0.20;;
24521;SDS011;12680;57.804;12.190;2022-11-21T01:40:11;0.20;;;0.20;;
24521;SDS011;12680;57.804;12.190;2022-11-21T01:48:32;0.20;;;0.20;;
24521;SDS011;12680;57.804;12.190;2022-11-21T01:53:51;0.28;;;0.28;;
24521;SDS011;12680;57.804;12.190;2022-11-21T01:56:22;0.13;;;0.13;;
24521;SDS011;12680;57.804;12.190;2022-11-21T01:58:51;0.10;;;0.10;;
24521;SDS011;12680;57.804;12.190;2022-11-21T02:01:19;0.20;;;0.20;;
24521;SDS011;12680;57.804;12.190;2022-11-21T02:03:47;0.30;;;0.30;;
24521;SDS011;12680;57.804;12.190;2022-11-21T02:06:14;0.63;;;0.30;;
24521;SDS011;12680;57.804;12.190;2022-11-21T02:08:41;0.30;;;0.30;;
24521;SDS011;12680;57.804;12.190;2022-11-21T02:13:59;0.20;;;0.20;;
24521;SDS011;12680;57.804;12.190;2022-11-21T02:16:27;0.32;;;0.22;;
24521;SDS011;12680;57.804;12.190;2022-11-21T02:18:55;0.35;;;0.30;;
24521;SDS011;12680;57.804;12.190;2022-11-21T02:21:25;0.70;;;0.57;;
24521;SDS011;12680;57.804;12.190;2022-11-21T02:24:13;0.50;;;0.50;;
24521;SDS011;12680;57.804;12.190;2022-11-21T02:26:51;0.90;;;0.50;;
24521;SDS011;12680;57.804;12.190;2022-11-21T02:29:18;0.60;;;0.60;;
24521;SDS011;12680;57.804;12.190;2022-11-21T02:31:45;0.40;;;0.40;;
24521;SDS011;12680;57.804;12.190;2022-11-21T02:34:13;0.65;;;0.52;;
24521;SDS011;12680;57.804;12.190;2022-11-21T02:36:41;0.80;;;0.70;;
24521;SDS011;12680;57.804;12.190;2022-11-21T02:39:11;0.90;;;0.77;;
24521;SDS011;12680;57.804;12.190;2022-11-21T02:41:45;1.10;;;0.93;;
24521;SDS011;12680;57.804;12.190;2022-11-21T02:44:28;1.13;;;0.73;;
24521;SDS011;12680;57.804;12.190;2022-11-21T02:46:59;2.13;;;1.40;;
24521;SDS011;12680;57.804;12.190;2022-11-21T02:49:28;1.38;;;1.25;;
24521;SDS011;12680;57.804;12.190;2022-11-21T02:52:01;1.50;;;1.10;;
24521;SDS011;12680;57.804;12.190;2022-11-21T02:54:28;1.20;;;1.10;;
24521;SDS011;12680;57.804;12.190;2022-11-21T02:56:55;1.65;;;1.25;;
24521;SDS011;12680;57.804;12.190;2022-11-21T02:59:23;4.38;;;1.42;;
24521;SDS011;12680;57.804;12.190;2022-11-21T03:01:50;2.63;;;1.27;;
24521;SDS011;12680;57.804;12.190;2022-11-21T03:04:17;2.47;;;1.08;;
24521;SDS011;12680;57.804;12.190;2022-11-21T03:06:44;1.80;;;1.15;;
24521;SDS011;12680;57.804;12.190;2022-11-21T03:09:11;2.05;;;1.05;;
24521;SDS011;12680;57.804;12.190;2022-11-21T03:11:38;1.33;;;1.05;;
24521;SDS011;12680;57.804;12.190;2022-11-21T03:14:05;2.10;;;0.90;;
24521;SDS011;12680;57.804;12.190;2022-11-21T03:16:32;2.00;;;1.40;;
24521;SDS011;12680;57.804;12.190;2022-11-21T03:18:59;1.45;;;1.20;;
24521;SDS011;12680;57.804;12.190;2022-11-21T03:21:26;1.98;;;1.48;;
24521;SDS011;12680;57.804;12.190;2022-11-21T03:23:53;1.70;;;1.30;;
24521;SDS011;12680;57.804;12.190;2022-11-21T03:26:20;1.63;;;1.23;;
24521;SDS011;12680;57.804;12.190;2022-11-21T03:28:48;1.75;;;1.60;;
24521;SDS011;12680;57.804;12.190;2022-11-21T03:31:15;1.70;;;1.10;;
24521;SDS011;12680;57.804;12.190;2022-11-21T03:33:42;1.45;;;1.20;;
24521;SDS011;12680;57.804;12.190;2022-11-21T03:36:09;2.45;;;1.42;;
24521;SDS011;12680;57.804;12.190;2022-11-21T03:38:36;3.65;;;1.40;;
24521;SDS011;12680;57.804;12.190;2022-11-21T03:41:03;1.20;;;1.10;;
24521;SDS011;12680;57.804;12.190;2022-11-21T03:43:51;1.63;;;1.27;;
24521;SDS011;12680;57.804;12.190;2022-11-21T03:46:18;1.20;;;1.10;;
24521;SDS011;12680;57.804;12.190;2022-11-21T03:48:45;1.50;;;1.17;;
24521;SDS011;12680;57.804;12.190;2022-11-21T03:51:13;1.10;;;0.95;;
24521;SDS011;12680;57.804;12.190;2022-11-21T03:53:40;1.85;;;1.30;;
24521;SDS011;12680;57.804;12.190;2022-11-21T03:56:07;1.60;;;1.20;;
24521;SDS011;12680;57.804;12.190;2022-11-21T03:58:34;1.98;;;1.17;;
24521;SDS011;12680;57.804;12.190;2022-11-21T04:01:01;1.35;;;1.10;;
24521;SDS011;12680;57.804;12.190;2022-11-21T04:03:28;1.80;;;1.45;;
24521;SDS011;12680;57.804;12.190;2022-11-21T04:05:55;1.92;;;1.55;;
24521;SDS011;12680;57.804;12.190;2022-11-21T04:08:22;2.15;;;1.30;;
24521;SDS011;12680;57.804;12.190;2022-11-21T04:10:50;1.40;;;1.30;;
24521;SDS011;12680;57.804;12.190;2022-11-21T04:13:18;2.28;;;1.38;;
24521;SDS011;12680;57.804;12.190;2022-11-21T04:15:47;1.55;;;1.25;;
24521;SDS011;12680;57.804;12.190;2022-11-21T04:18:14;1.83;;;1.40;;
24521;SDS011;12680;57.804;12.190;2022-11-21T04:20:41;1.40;;;1.00;;
24521;SDS011;12680;57.804;12.190;2022-11-21T04:23:08;2.15;;;1.20;;
24521;SDS011;12680;57.804;12.190;2022-11-21T04:25:35;0.82;;;0.77;;
24521;SDS011;12680;57.804;12.190;2022-11-21T04:28:03;1.02;;;0.90;;
24521;SDS011;12680;57.804;12.190;2022-11-21T04:30:31;1.30;;;1.10;;
24521;SDS011;12680;57.804;12.190;2022-11-21T04:32:59;1.02;;;0.93;;
24521;SDS011;12680;57.804;12.190;2022-11-21T04:35:26;1.25;;;1.08;;
24521;SDS011;12680;57.804;12.190;2022-11-21T04:37:53;1.10;;;0.93;;
24521;SDS011;12680;57.804;12.190;2022-11-21T04:40:21;1.13;;;1.00;;
24521;SDS011;12680;57.804;12.190;2022-11-21T04:42:48;1.75;;;1.00;;
24521;SDS011;12680;57.804;12.190;2022-11-21T04:45:15;1.13;;;1.00;;
24521;SDS011;12680;57.804;12.190;2022-11-21T04:47:43;1.10;;;0.90;;
24521;SDS011;12680;57.804;12.190;2022-11-21T04:50:13;2.47;;;1.10;;
24521;SDS011;12680;57.804;12.190;2022-11-21T04:52:40;1.02;;;0.82;;
24521;SDS011;12680;57.804;12.190;2022-11-21T04:55:08;1.45;;;1.08;;
24521;SDS011;12680;57.804;12.190;2022-11-21T04:57:35;1.02;;;0.90;;
24521;SDS011;12680;57.804;12.190;2022-11-21T05:00:03;1.08;;;0.98;;
24521;SDS011;12680;57.804;12.190;2022-11-21T05:02:31;1.52;;;1.00;;
24521;SDS011;12680;57.804;12.190;2022-11-21T05:04:59;1.73;;;0.98;;
24521;SDS011;12680;57.804;12.190;2022-11-21T05:07:26;2.10;;;1.30;;
24521;SDS011;12680;57.804;12.190;2022-11-21T05:09:53;0.93;;;0.85;;
24521;SDS011;12680;57.804;12.190;2022-11-21T05:12:20;1.85;;;1.13;;
24521;SDS011;12680;57.804;12.190;2022-11-21T05:15:06;1.88;;;1.00;;
24521;SDS011;12680;57.804;12.190;2022-11-21T05:17:33;1.30;;;1.08;;
24521;SDS011;12680;57.804;12.190;2022-11-21T05:20:01;1.25;;;1.15;;
24521;SDS011;12680;57.804;12.190;2022-11-21T05:22:28;1.45;;;1.10;;
24521;SDS011;12680;57.804;12.190;2022-11-21T05:24:55;2.50;;;1.33;;
24521;SDS011;12680;57.804;12.190;2022-11-21T05:27:22;1.27;;;1.00;;
24521;SDS011;12680;57.804;12.190;2022-11-21T05:29:49;1.73;;;1.10;;
24521;SDS011;12680;57.804;12.190;2022-11-21T05:32:17;2.90;;;1.20;;
24521;SDS011;12680;57.804;12.190;2022-11-21T05:34:44;1.95;;;0.98;;
24521;SDS011;12680;57.804;12.190;2022-11-21T05:37:11;1.40;;;1.02;;
24521;SDS011;12680;57.804;12.190;2022-11-21T05:39:39;2.90;;;1.60;;
24521;SDS011;12680;57.804;12.190;2022-11-21T05:42:06;1.88;;;1.30;;
24521;SDS011;12680;57.804;12.190;2022-11-21T05:44:33;2.53;;;1.25;;
24521;SDS011;12680;57.804;12.190;2022-11-21T05:47:00;1.83;;;1.50;;
24521;SDS011;12680;57.804;12.190;2022-11-21T05:49:27;2.28;;;1.25;;
24521;SDS011;12680;57.804;12.190;2022-11-21T05:51:54;1.25;;;1.10;;
24521;SDS011;12680;57.804;12.190;2022-11-21T05:54:21;2.30;;;1.30;;
24521;SDS011;12680;57.804;12.190;2022-11-21T05:56:49;1.35;;;1.10;;
24521;SDS011;12680;57.804;12.190;2022-11-21T05:59:16;1.10;;;1.00;;
24521;SDS011;12680;57.804;12.190;2022-11-21T06:01:43;1.75;;;1.20;;
24521;SDS011;12680;57.804;12.190;2022-11-21T06:04:29;1.58;;;1.30;;
24521;SDS011;12680;57.804;12.190;2022-11-21T06:06:56;0.93;;;0.80;;
24521;SDS011;12680;57.804;12.190;2022-11-21T06:09:23;0.85;;;0.85;;
24521;SDS011;12680;57.804;12.190;2022-11-21T06:11:50;1.08;;;1.00;;
24521;SDS011;12680;57.804;12.190;2022-11-21T06:14:18;1.45;;;0.90;;
24521;SDS011;12680;57.804;12.190;2022-11-21T06:16:45;1.45;;;1.00;;
24521;SDS011;12680;57.804;12.190;2022-11-21T06:19:12;0.70;;;0.70;;
24521;SDS011;12680;57.804;12.190;2022-11-21T06:21:39;1.25;;;1.02;;
24521;SDS011;12680;57.804;12.190;2022-11-21T06:24:06;1.15;;;1.05;;
24521;SDS011;12680;57.804;12.190;2022-11-21T06:26:34;1.02;;;0.90;;
24521;SDS011;12680;57.804;12.190;2022-11-21T06:29:01;1.25;;;1.08;;
24521;SDS011;12680;57.804;12.190;2022-11-21T06:31:28;4.60;;;0.93;;
24521;SDS011;12680;57.804;12.190;2022-11-21T06:33:56;1.70;;;1.10;;
24521;SDS011;12680;57.804;12.190;2022-11-21T06:36:24;0.75;;;0.70;;
24521;SDS011;12680;57.804;12.190;2022-11-21T06:38:53;1.63;;;1.00;;
24521;SDS011;12680;57.804;12.190;2022-11-21T06:41:22;1.08;;;1.00;;
24521;SDS011;12680;57.804;12.190;2022-11-21T06:43:51;1.33;;;0.98;;
24521;SDS011;12680;57.804;12.190;2022-11-21T06:46:19;1.30;;;1.00;;
24521;SDS011;12680;57.804;12.190;2022-11-21T06:48:46;1.60;;;1.00;;
24521;SDS011;12680;57.804;12.190;2022-11-21T06:51:17;1.20;;;1.00;;
24521;SDS011;12680;57.804;12.190;2022-11-21T06:53:56;1.73;;;1.10;;
24521;SDS011;12680;57.804;12.190;2022-11-21T06:56:25;1.00;;;0.90;;
24521;SDS011;12680;57.804;12.190;2022-11-21T06:58:53;1.65;;;1.10;;
24521;SDS011;12680;57.804;12.190;2022-11-21T07:01:21;1.60;;;0.90;;
24521;SDS011;12680;57.804;12.190;2022-11-21T07:03:49;2.20;;;1.00;;
24521;SDS011;12680;57.804;12.190;2022-11-21T07:06:17;1.13;;;0.93;;
24521;SDS011;12680;57.804;12.190;2022-11-21T07:08:44;1.25;;;1.08;;
24521;SDS011;12680;57.804;12.190;2022-11-21T07:11:17;1.35;;;0.90;;
24521;SDS011;12680;57.804;12.190;2022-11-21T07:13:52;1.63;;;0.93;;
24521;SDS011;12680;57.804;12.190;2022-11-21T07:16:19;1.50;;;1.00;;
24521;SDS011;12680;57.804;12.190;2022-11-21T07:18:46;1.70;;;1.30;;
24521;SDS011;12680;57.804;12.190;2022-11-21T07:21:14;1.75;;;1.42;;
24521;SDS011;12680;57.804;12.190;2022-11-21T07:23:41;1.73;;;1.30;;
24521;SDS011;12680;57.804;12.190;2022-11-21T07:26:09;1.40;;;0.85;;
24521;SDS011;12680;57.804;12.190;2022-11-21T07:28:36;1.42;;;1.17;;
24521;SDS011;12680;57.804;12.190;2022-11-21T07:31:03;1.15;;;1.00;;
24521;SDS011;12680;57.804;12.190;2022-11-21T07:33:38;1.63;;;1.10;;
24521;SDS011;12680;57.804;12.190;2022-11-21T07:36:05;1.65;;;1.33;;
24521;SDS011;12680;57.804;12.190;2022-11-21T07:38:32;1.27;;;1.10;;
24521;SDS011;12680;57.804;12.190;2022-11-21T07:40:59;1.35;;;1.20;;
24521;SDS011;12680;57.804;12.190;2022-11-21T07:43:27;2.30;;;1.33;;
24521;SDS011;12680;57.804;12.190;2022-11-21T07:45:54;2.35;;;1.35;;
24521;SDS011;12680;57.804;12.190;2022-11-21T07:48:22;1.20;;;1.10;;
24521;SDS011;12680;57.804;12.190;2022-11-21T07:50:49;2.90;;;1.10;;
24521;SDS011;12680;57.804;12.190;2022-11-21T07:53:16;2.55;;;1.42;;
24521;SDS011;12680;57.804;12.190;2022-11-21T07:55:44;3.38;;;2.00;;
24521;SDS011;12680;57.804;12.190;2022-11-21T07:58:11;2.83;;;1.65;;
24521;SDS011;12680;57.804;12.190;2022-11-21T08:00:40;2.00;;;1.33;;
24521;SDS011;12680;57.804;12.190;2022-11-21T08:03:09;9.23;;;3.20;;
24521;SDS011;12680;57.804;12.190;2022-11-21T08:05:38;1.88;;;1.38;;
24521;SDS011;12680;57.804;12.190;2022-11-21T08:08:07;5.90;;;2.38;;
24521;SDS011;12680;57.804;12.190;2022-11-21T08:10:40;2.70;;;1.40;;
24521;SDS011;12680;57.804;12.190;2022-11-21T08:13:08;1.58;;;1.40;;
24521;SDS011;12680;57.804;12.190;2022-11-21T08:15:36;3.92;;;1.58;;
24521;SDS011;12680;57.804;12.190;2022-11-21T08:18:10;1.58;;;1.00;;
24521;SDS011;12680;57.804;12.190;2022-11-21T08:20:40;1.38;;;1.00;;
24521;SDS011;12680;57.804;12.190;2022-11-21T08:23:08;1.20;;;0.88;;
24521;SDS011;12680;57.804;12.190;2022-11-21T08:25:36;2.55;;;1.40;;
24521;SDS011;12680;57.804;12.190;2022-11-21T08:28:05;1.80;;;1.10;;
24521;SDS011;12680;57.804;12.190;2022-11-21T08:30:33;4.10;;;1.10;;
24521;SDS011;12680;57.804;12.190;2022-11-21T08:33:02;1.70;;;1.02;;
24521;SDS011;12680;57.804;12.190;2022-11-21T08:35:30;1.80;;;0.90;;
24521;SDS011;12680;57.804;12.190;2022-11-21T08:37:57;2.13;;;1.10;;
24521;SDS011;12680;57.804;12.190;2022-11-21T08:40:26;0.90;;;0.80;;
24521;SDS011;12680;57.804;12.190;2022-11-21T08:42:59;1.33;;;1.00;;
24521;SDS011;12680;57.804;12.190;2022-11-21T08:45:27;2.63;;;1.40;;
24521;SDS011;12680;57.804;12.190;2022-11-21T08:47:55;1.23;;;1.00;;
24521;SDS011;12680;57.804;12.190;2022-11-21T08:50:22;5.18;;;2.10;;
24521;SDS011;12680;57.804;12.190;2022-11-21T08:52:50;1.17;;;0.90;;
24521;SDS011;12680;57.804;12.190;2022-11-21T08:55:17;0.80;;;0.80;;
24521;SDS011;12680;57.804;12.190;2022-11-21T08:57:45;1.98;;;1.00;;
24521;SDS011;12680;57.804;12.190;2022-11-21T09:00:12;1.50;;;1.10;;
24521;SDS011;12680;57.804;12.190;2022-11-21T09:02:40;1.52;;;1.00;;
24521;SDS011;12680;57.804;12.190;2022-11-21T09:05:07;1.25;;;0.80;;
24521;SDS011;12680;57.804;12.190;2022-11-21T09:07:35;1.38;;;0.90;;
24521;SDS011;12680;57.804;12.190;2022-11-21T09:10:02;1.08;;;0.98;;
24521;SDS011;12680;57.804;12.190;2022-11-21T09:12:30;2.25;;;1.58;;
24521;SDS011;12680;57.804;12.190;2022-11-21T09:14:57;2.95;;;1.08;;
24521;SDS011;12680;57.804;12.190;2022-11-21T09:17:43;1.83;;;1.00;;
24521;SDS011;12680;57.804;12.190;2022-11-21T09:20:29;1.17;;;0.95;;
24521;SDS011;12680;57.804;12.190;2022-11-21T09:23:08;1.30;;;1.02;;
24521;SDS011;12680;57.804;12.190;2022-11-21T09:25:36;1.70;;;1.30;;
24521;SDS011;12680;57.804;12.190;2022-11-21T09:28:05;1.40;;;0.98;;
24521;SDS011;12680;57.804;12.190;2022-11-21T09:30:33;1.27;;;1.17;;
24521;SDS011;12680;57.804;12.190;2022-11-21T09:33:02;1.92;;;1.05;;
24521;SDS011;12680;57.804;12.190;2022-11-21T09:35:30;0.90;;;0.90;;
24521;SDS011;12680;57.804;12.190;2022-11-21T09:37:58;1.35;;;1.17;;
24521;SDS011;12680;57.804;12.190;2022-11-21T09:40:27;2.35;;;0.95;;
24521;SDS011;12680;57.804;12.190;2022-11-21T09:45:33;1.00;;;0.90;;
24521;SDS011;12680;57.804;12.190;2022-11-21T09:48:13;1.75;;;1.13;;
24521;SDS011;12680;57.804;12.190;2022-11-21T09:50:49;0.95;;;0.95;;
24521;SDS011;12680;57.804;12.190;2022-11-21T09:55:58;0.90;;;0.90;;
24521;SDS011;12680;57.804;12.190;2022-11-21T09:58:42;1.30;;;0.90;;
24521;SDS011;12680;57.804;12.190;2022-11-21T10:01:14;1.10;;;1.00;;
24521;SDS011;12680;57.804;12.190;2022-11-21T10:03:46;0.70;;;0.70;;
24521;SDS011;12680;57.804;12.190;2022-11-21T10:06:28;1.13;;;0.80;;
24521;SDS011;12680;57.804;12.190;2022-11-21T10:11:38;1.05;;;0.85;;
24521;SDS011;12680;57.804;12.190;2022-11-21T10:17:37;2.55;;;1.55;;
24521;SDS011;12680;57.804;12.190;2022-11-21T10:23:33;0.63;;;0.63;;
24521;SDS011;12680;57.804;12.190;2022-11-21T10:31:40;1.05;;;0.75;;
24521;SDS011;12680;57.804;12.190;2022-11-21T10:34:09;0.95;;;0.90;;
24521;SDS011;12680;57.804;12.190;2022-11-21T10:39:12;0.60;;;0.60;;
24521;SDS011;12680;57.804;12.190;2022-11-21T10:41:59;0.82;;;0.60;;
24521;SDS011;12680;57.804;12.190;2022-11-21T10:44:49;1.02;;;0.70;;
24521;SDS011;12680;57.804;12.190;2022-11-21T10:47:35;0.65;;;0.65;;
24521;SDS011;12680;57.804;12.190;2022-11-21T10:50:13;0.88;;;0.52;;
24521;SDS011;12680;57.804;12.190;2022-11-21T10:53:23;0.73;;;0.60;;
24521;SDS011;12680;57.804;12.190;2022-11-21T10:56:11;0.70;;;0.70;;
24521;SDS011;12680;57.804;12.190;2022-11-21T10:58:42;0.73;;;0.70;;
24521;SDS011;12680;57.804;12.190;2022-11-21T11:01:29;0.88;;;0.75;;
24521;SDS011;12680;57.804;12.190;2022-11-21T11:04:06;0.77;;;0.70;;
24521;SDS011;12680;57.804;12.190;2022-11-21T11:06:55;1.88;;;0.68;;
24521;SDS011;12680;57.804;12.190;2022-11-21T11:09:26;1.33;;;0.70;;
24521;SDS011;12680;57.804;12.190;2022-11-21T11:16:18;0.65;;;0.60;;
24521;SDS011;12680;57.804;12.190;2022-11-21T11:21:21;0.68;;;0.60;;
24521;SDS011;12680;57.804;12.190;2022-11-21T11:23:51;0.80;;;0.80;;
24521;SDS011;12680;57.804;12.190;2022-11-21T11:26:24;0.60;;;0.60;;
24521;SDS011;12680;57.804;12.190;2022-11-21T11:28:57;0.75;;;0.45;;
24521;SDS011;12680;57.804;12.190;2022-11-21T11:34:57;2.00;;;0.55;;
24521;SDS011;12680;57.804;12.190;2022-11-21T11:37:29;1.13;;;0.82;;
24521;SDS011;12680;57.804;12.190;2022-11-21T11:40:27;0.70;;;0.70;;
24521;SDS011;12680;57.804;12.190;2022-11-21T11:49:02;4.00;;;1.05;;
24521;SDS011;12680;57.804;12.190;2022-11-21T11:51:56;2.55;;;1.60;;
24521;SDS011;12680;57.804;12.190;2022-11-21T11:54:30;1.55;;;1.45;;
24521;SDS011;12680;57.804;12.190;2022-11-21T11:57:12;0.90;;;0.90;;
24521;SDS011;12680;57.804;12.190;2022-11-21T11:59:41;0.70;;;0.70;;
24521;SDS011;12680;57.804;12.190;2022-11-21T12:02:26;0.52;;;0.52;;
24521;SDS011;12680;57.804;12.190;2022-11-21T12:05:13;0.98;;;0.85;;
24521;SDS011;12680;57.804;12.190;2022-11-21T12:23:20;1.63;;;1.15;;
24521;SDS011;12680;57.804;12.190;2022-11-21T12:31:32;1.30;;;1.00;;
24521;SDS011;12680;57.804;12.190;2022-11-21T12:34:26;1.17;;;1.00;;
24521;SDS011;12680;57.804;12.190;2022-11-21T12:39:52;1.20;;;1.00;;
24521;SDS011;12680;57.804;12.190;2022-11-21T12:57:24;2.13;;;1.58;;
24521;SDS011;12680;57.804;12.190;2022-11-21T13:05:55;1.52;;;1.42;;
24521;SDS011;12680;57.804;12.190;2022-11-21T13:08:24;1.40;;;1.27;;
24521;SDS011;12680;57.804;12.190;2022-11-21T13:13:42;1.90;;;1.77;;
24521;SDS011;12680;57.804;12.190;2022-11-21T13:16:23;0.93;;;0.93;;
24521;SDS011;12680;57.804;12.190;2022-11-21T13:19:11;1.27;;;1.20;;
24521;SDS011;12680;57.804;12.190;2022-11-21T13:21:46;1.77;;;1.40;;
24521;SDS011;12680;57.804;12.190;2022-11-21T13:27:23;3.05;;;1.50;;
24521;SDS011;12680;57.804;12.190;2022-11-21T13:32:41;2.65;;;1.48;;
24521;SDS011;12680;57.804;12.190;2022-11-21T13:40:58;2.92;;;1.60;;
24521;SDS011;12680;57.804;12.190;2022-11-21T13:43:29;2.22;;;1.45;;
24521;SDS011;12680;57.804;12.190;2022-11-21T13:45:59;2.30;;;1.80;;
24521;SDS011;12680;57.804;12.190;2022-11-21T13:55:17;3.47;;;1.35;;
24521;SDS011;12680;57.804;12.190;2022-11-21T13:57:34;2.78;;;1.77;;
24521;SDS011;12680;57.804;12.190;2022-11-21T14:03:38;1.88;;;1.30;;
24521;SDS011;12680;57.804;12.190;2022-11-21T14:06:35;1.75;;;1.33;;
24521;SDS011;12680;57.804;12.190;2022-11-21T14:09:15;4.15;;;1.63;;
24521;SDS011;12680;57.804;12.190;2022-11-21T14:11:54;2.05;;;1.67;;
24521;SDS011;12680;57.804;12.190;2022-11-21T14:14:38;3.28;;;1.60;;
24521;SDS011;12680;57.804;12.190;2022-11-21T14:17:26;2.67;;;2.10;;
24521;SDS011;12680;57.804;12.190;2022-11-21T14:20:30;1.90;;;1.67;;
24521;SDS011;12680;57.804;12.190;2022-11-21T14:23:16;1.80;;;1.40;;
24521;SDS011;12680;57.804;12.190;2022-11-21T14:25:49;5.25;;;2.63;;
24521;SDS011;12680;57.804;12.190;2022-11-21T14:28:22;2.72;;;1.80;;
24521;SDS011;12680;57.804;12.190;2022-11-21T14:31:02;2.28;;;1.60;;
24521;SDS011;12680;57.804;12.190;2022-11-21T14:33:34;3.40;;;2.00;;
24521;SDS011;12680;57.804;12.190;2022-11-21T14:36:04;2.40;;;1.88;;
24521;SDS011;12680;57.804;12.190;2022-11-21T14:38:33;2.15;;;1.95;;
24521;SDS011;12680;57.804;12.190;2022-11-21T14:46:25;3.45;;;1.92;;
24521;SDS011;12680;57.804;12.190;2022-11-21T14:48:54;2.60;;;1.85;;
24521;SDS011;12680;57.804;12.190;2022-11-21T14:51:25;3.88;;;1.77;;
24521;SDS011;12680;57.804;12.190;2022-11-21T14:53:55;2.45;;;1.63;;
24521;SDS011;12680;57.804;12.190;2022-11-21T14:56:27;2.67;;;1.90;;
24521;SDS011;12680;57.804;12.190;2022-11-21T14:58:56;2.58;;;1.70;;
24521;SDS011;12680;57.804;12.190;2022-11-21T15:01:27;2.75;;;2.17;;
24521;SDS011;12680;57.804;12.190;2022-11-21T15:03:57;1.98;;;1.77;;
24521;SDS011;12680;57.804;12.190;2022-11-21T15:06:30;1.98;;;1.67;;
24521;SDS011;12680;57.804;12.190;2022-11-21T15:09:05;2.80;;;1.65;;
24521;SDS011;12680;57.804;12.190;2022-11-21T15:12:00;2.50;;;1.83;;
24521;SDS011;12680;57.804;12.190;2022-11-21T15:14:41;2.72;;;1.80;;
24521;SDS011;12680;57.804;12.190;2022-11-21T15:17:21;1.58;;;1.35;;
24521;SDS011;12680;57.804;12.190;2022-11-21T15:22:54;3.35;;;2.22;;
24521;SDS011;12680;57.804;12.190;2022-11-21T15:25:24;2.45;;;1.73;;
24521;SDS011;12680;57.804;12.190;2022-11-21T15:30:32;1.90;;;1.42;;
24521;SDS011;12680;57.804;12.190;2022-11-21T15:43:38;3.22;;;1.98;;
24521;SDS011;12680;57.804;12.190;2022-11-21T15:46:14;5.82;;;2.15;;
24521;SDS011;12680;57.804;12.190;2022-11-21T15:48:45;3.45;;;2.20;;
24521;SDS011;12680;57.804;12.190;2022-11-21T15:51:18;6.95;;;3.03;;
24521;SDS011;12680;57.804;12.190;2022-11-21T15:54:09;6.07;;;3.05;;
24521;SDS011;12680;57.804;12.190;2022-11-21T15:56:38;4.30;;;2.47;;
24521;SDS011;12680;57.804;12.190;2022-11-21T15:59:06;3.13;;;2.00;;
24521;SDS011;12680;57.804;12.190;2022-11-21T16:01:34;2.67;;;2.22;;
24521;SDS011;12680;57.804;12.190;2022-11-21T16:04:03;2.97;;;2.42;;
24521;SDS011;12680;57.804;12.190;2022-11-21T16:06:31;3.72;;;2.40;;
24521;SDS011;12680;57.804;12.190;2022-11-21T16:09:00;4.47;;;3.05;;
24521;SDS011;12680;57.804;12.190;2022-11-21T16:11:35;3.08;;;2.45;;
24521;SDS011;12680;57.804;12.190;2022-11-21T16:14:03;3.55;;;2.65;;
24521;SDS011;12680;57.804;12.190;2022-11-21T16:16:33;3.83;;;2.70;;
24521;SDS011;12680;57.804;12.190;2022-11-21T16:19:09;4.53;;;2.63;;
24521;SDS011;12680;57.804;12.190;2022-11-21T16:21:37;3.03;;;2.28;;
24521;SDS011;12680;57.804;12.190;2022-11-21T16:24:04;3.53;;;2.22;;
24521;SDS011;12680;57.804;12.190;2022-11-21T16:26:32;3.60;;;2.53;;
24521;SDS011;12680;57.804;12.190;2022-11-21T16:28:59;4.38;;;2.35;;
24521;SDS011;12680;57.804;12.190;2022-11-21T16:31:30;4.30;;;2.50;;
24521;SDS011;12680;57.804;12.190;2022-11-21T16:33:58;4.28;;;2.83;;
24521;SDS011;12680;57.804;12.190;2022-11-21T16:36:29;3.97;;;2.40;;
24521;SDS011;12680;57.804;12.190;2022-11-21T16:38:57;8.48;;;3.53;;
24521;SDS011;12680;57.804;12.190;2022-11-21T16:41:34;7.45;;;3.50;;
24521;SDS011;12680;57.804;12.190;2022-11-21T16:44:01;5.07;;;2.80;;
24521;SDS011;12680;57.804;12.190;2022-11-21T16:46:28;4.93;;;3.13;;
24521;SDS011;12680;57.804;12.190;2022-11-21T16:48:57;4.53;;;2.90;;
24521;SDS011;12680;57.804;12.190;2022-11-21T16:51:25;5.38;;;3.38;;
24521;SDS011;12680;57.804;12.190;2022-11-21T16:53:53;4.88;;;2.90;;
24521;SDS011;12680;57.804;12.190;2022-11-21T16:56:23;4.68;;;2.83;;
24521;SDS011;12680;57.804;12.190;2022-11-21T16:58:50;3.85;;;2.33;;
24521;SDS011;12680;57.804;12.190;2022-11-21T17:01:19;3.65;;;2.45;;
24521;SDS011;12680;57.804;12.190;2022-11-21T17:03:48;4.05;;;2.53;;
24521;SDS011;12680;57.804;12.190;2022-11-21T17:06:17;3.33;;;2.53;;
24521;SDS011;12680;57.804;12.190;2022-11-21T17:08:47;3.17;;;1.85;;
24521;SDS011;12680;57.804;12.190;2022-11-21T17:11:15;5.65;;;2.58;;
24521;SDS011;12680;57.804;12.190;2022-11-21T17:13:51;5.10;;;3.08;;
24521;SDS011;12680;57.804;12.190;2022-11-21T17:16:19;5.30;;;3.30;;